Date,TemperatureHighF,TemperatureAvgF,TemperatureLowF,DewpointHighF,DewpointAvgF,DewpointLowF,HumidityHigh,HumidityAvg,HumidityLow,PressureMaxIn,PressureMinIn,WindSpeedMaxMPH,WindSpeedAvgMPH,GustSpeedMaxMPH,PrecipitationSumIn
2013-3-1,36.7,33.2,30.9,32.5,30.6,27.1,100,90,79,30.01,29.95,9,2,9,0.28
2013-3-2,39.6,32.7,27.3,32.7,28.7,21.6,100,85,71,30.03,29.95,11,4,11,0.28
2013-3-3,34.9,27.2,23.9,24.1,19.7,17.3,88,73,65,30.09,30.01,13,5,13,0.28
2013-3-4,58.1,37.2,22.1,38.5,25.0,15.6,80,62,48,30.18,30.09,9,1,9,0.28
2013-3-5,51.6,38.6,31.1,51.3,36.4,24.8,100,92,70,30.12,29.74,20,2,20,0.98
2013-3-6,33.6,29.0,25.9,30.5,25.8,21.0,95,88,76,30.24,29.83,23,6,23,0.28
2013-3-7,43.5,33.4,28.2,34.8,28.0,24.6,92,81,67,30.36,30.21,12,3,12,0.28
2013-3-8,57.6,36.5,22.3,39.6,28.4,20.1,100,74,51,30.39,30.30,10,2,10,0.28
2013-3-9,70.0,45.2,23.7,48.3,34.0,21.5,94,68,46,30.39,30.24,10,2,10,0.28
2013-3-10,70.2,52.5,36.9,48.6,39.0,32.0,85,62,46,30.30,30.18,15,2,15,0.28
2013-3-11,57.6,53.8,51.6,54.0,48.7,39.4,100,84,57,30.21,29.92,26,6,26,0.59
2013-3-12,53.2,44.3,34.3,52.0,39.6,31.5,100,85,61,30.12,29.89,15,4,15,0.28
2013-3-13,44.1,35.0,29.1,34.9,28.3,19.7,100,78,57,30.27,30.12,24,5,24,0.28
2013-3-14,48.4,34.1,24.6,30.8,22.2,17.1,74,62,50,30.36,30.24,14,5,14,0.28
2013-3-15,69.3,47.1,28.4,49.0,35.8,21.2,86,66,46,30.27,30.03,18,2,18,0.28
2013-3-16,76.3,59.3,43.3,57.0,48.5,40.0,91,70,49,30.03,29.89,19,3,19,0.28
2013-3-17,74.5,61.8,51.3,56.1,50.2,46.5,85,67,50,30.06,29.95,17,3,17,0.28
2013-3-18,57.4,48.4,42.8,51.2,45.1,40.1,100,89,71,30.09,29.92,17,3,17,0.59
2013-3-19,56.8,46.3,34.3,45.7,36.9,22.9,100,72,49,30.18,29.95,15,4,15,0.00
2013-3-20,55.2,39.5,26.2,36.2,28.0,21.1,93,65,49,30.18,29.92,19,3,19,0.00
2013-3-21,39.0,29.5,21.4,30.2,19.8,14.4,89,67,53,30.03,29.92,17,4,17,0.00
2013-3-22,49.3,33.8,19.0,31.5,23.0,14.9,88,66,48,30.09,30.01,8,1,9,0.00
2013-3-23,55.6,44.0,36.3,45.7,37.3,28.3,97,77,66,30.09,29.92,8,1,8,0.00
2013-3-24,49.8,44.2,40.1,47.6,43.0,39.2,100,96,79,29.95,29.59,13,2,13,0.87
2013-3-25,40.1,33.3,29.1,40.1,28.3,24.3,100,82,68,30.01,29.62,23,4,23,0.04
2013-3-26,38.1,31.4,27.5,31.2,28.0,24.3,100,87,76,30.27,30.01,13,3,13,0.08
2013-3-27,45.1,34.6,28.6,33.6,27.3,24.0,88,75,62,30.33,30.24,14,4,14,0.00
2013-3-28,54.3,36.7,22.8,37.2,27.8,20.8,95,72,49,30.36,30.30,15,2,15,0.00
2013-3-29,56.3,38.3,24.4,40.6,31.5,21.4,100,78,49,30.39,30.30,15,2,15,0.12
2013-3-30,64.6,50.5,39.6,49.2,43.4,39.6,100,79,54,30.30,30.12,13,2,13,0.12
2013-3-31,61.7,52.8,47.5,56.0,50.3,42.7,100,92,69,30.12,29.95,10,1,10,0.55